Weather observations for the past three days for
Cloquet Carlton County Airport
Metric (Imperial)
Date Time (cdt) Wind (kph) Vis. (km) Weather Sky Cond. Temperature (ºC) Relative Humidity Wind Chill (°C) Heat Index (°C) Pressure Precipitation (cm)
Air Dwpt 6 hour altimeter (cm) sea level (mb) 1 hr 3 hr 6 hr
Max. Min.
05 20:15 NW 13 16.09 Overcast OVC048 3 -8 45% 0 75.79 0.0
05 19:55 NW 15 16.09 Overcast OVC046 3 -8 45% -0 75.79 0.0
05 19:35 NW 20 G 28 16.09 Overcast OVC046 3 -7 48% -1 75.77 0.0
05 19:15 W 17 16.09 Overcast OVC046 3 -8 45% -1 75.77 0.0
05 18:55 W 19 16.09 Overcast OVC046 4 -7 45% 0 75.74 0.0
05 18:35 W 13 16.09 Overcast OVC046 4 -7 45% 1 75.74 0.0
05 18:15 W 22 G 30 16.09 Overcast OVC046 4 -7 45% -0 75.74 0.0
05 17:55 NW 22 G 39 16.09 Overcast OVC046 4 -8 42% -0 75.72 0.0
05 17:35 W 22 G 31 16.09 Overcast OVC046 4 -7 45% -0 75.72 0.0
05 17:15 NW 20 16.09 Overcast OVC048 4 -8 42% 0 75.72 0.0
05 16:55 W 19 G 30 16.09 Overcast OVC046 4 -8 42% 0 75.69 0.0
05 16:35 NW 22 G 35 16.09 Overcast OVC048 5 -8 39% 1 75.69 0.0
05 16:15 W 19 G 30 16.09 Overcast OVC046 6 -7 39% 3 75.69 0.0
05 15:55 W 17 G 31 16.09 Overcast OVC044 4 -8 42% 1 75.69 0.0
05 15:35 W 15 G 30 16.09 Overcast OVC044 4 -8 42% 1 75.69 0.0
05 15:15 NW 20 G 35 16.09 Overcast OVC042 4 -8 42% 0 75.69 0.0
05 14:55 W 22 G 30 16.09 Overcast OVC042 4 -7 45% -0 75.69 0.0
05 14:35 W 22 G 33 16.09 Overcast OVC040 4 -7 45% -0 75.69 0.0
05 14:15 W 17 G 33 16.09 Overcast OVC042 4 -7 45% 1 75.69 0.0
05 13:55 W 26 G 31 16.09 Overcast BKN044 OVC050 4 -7 45% -0 75.67 0.0
05 13:35 W 20 16.09 Overcast BKN046 OVC050 4 -7 45% 0 75.67 0.0
05 13:15 W 17 G 30 16.09 Overcast OVC046 4 -8 42% 1 75.64 0.0
05 12:55 W 20 G 35 16.09 Overcast OVC044 3 -8 45% -1 75.64 0.0
05 12:35 W 24 G 33 16.09 Overcast OVC046 4 -8 42% -0 75.64 0.0
05 12:15 W 17 G 30 16.09 Overcast OVC044 4 -8 42% 1 75.64 0.0
05 11:55 W 20 G 37 16.09 Overcast OVC042 3 -8 45% -1 75.62 0.0
05 11:35 W 24 G 35 16.09 Overcast OVC042 3 -8 45% -2 75.62 0.0
05 11:15 W 19 G 28 16.09 Overcast OVC042 3 -8 45% -1 75.62 0.0
05 10:55 NW 22 G 33 16.09 Overcast OVC044 3 -9 41% -1 75.62 0.0
05 10:35 W 15 G 30 16.09 Overcast OVC042 2 -8 48% -2 75.62 0.0
05 10:15 W 24 G 35 16.09 Overcast OVC042 2 -9 44% -3 75.59 0.0
05 09:55 W 28 G 33 16.09 Overcast OVC043 2 -8 48% -3 75.57 0.0
05 09:35 NW 19 G 37 16.09 Overcast BKN041 OVC050 1 -9 48% -3 75.57 0.0
05 09:15 NW 22 G 33 16.09 Overcast BKN040 OVC048 1 -8 51% -4 75.57 0.0
05 08:55 NW 17 G 35 16.09 Overcast SCT040 BKN048 OVC050 1 -8 51% -3 75.54 0.0
05 08:35 W 20 16.09 Overcast SCT033 BKN048 OVC050 1 -8 51% -4 75.51 0.0
05 08:15 NW 20 G 30 16.09 Overcast SCT033 BKN041 OVC065 1 -7 56% -4 75.51 0.0
05 07:55 W 19 G 31 16.09 Overcast OVC065 1 -7 56% -3 75.51 0.0
05 07:35 NW 17 G 28 16.09 Overcast OVC065 0 -7 60% -4 75.46 0.0
05 07:15 NW 19 G 30 16.09 Mostly Cloudy BKN065 0 -7 60% -5 75.46 0.0
05 06:55 W 17 G 30 16.09 Partly Cloudy SCT065 0 -7 60% -4 75.44 0.0
05 06:35 NW 15 G 28 16.09 Partly Cloudy SCT065 -1 -7 64% -5 75.44 0.0
05 06:15 NW 19 G 30 16.09 Fair CLR -1 -8 59% -6 75.41 0.0
05 05:55 NW 13 G 19 16.09 Fair CLR -1 -7 64% -5 75.39 0.0
05 05:35 NW 19 G 33 16.09 Fair CLR -1 -7 64% -6 75.39 0.0
05 05:15 W 19 G 33 16.09 Partly Cloudy SCT037 -1 -6 69% -6 75.39 0.0
05 04:55 W 13 16.09 Mostly Cloudy BKN037 0 -6 64% -4 75.36 0.0
05 04:35 W 11 G 26 16.09 Partly Cloudy SCT043 0 -6 64% -3 75.36 0.0
05 04:15 W 13 16.09 Partly Cloudy SCT048 0 -5 69% -4 75.34 0.0
05 03:55 W 17 16.09 Mostly Cloudy SCT029 BKN048 1 -5 65% -3 75.31 0.0
05 03:35 W 17 16.09 Partly Cloudy SCT039 SCT048 1 -5 65% -3 75.31 0.0
05 03:15 W 15 G 26 16.09 Fair CLR 1 -5 65% -3 75.29 0.0
05 02:55 W 19 16.09 Fair CLR 1 -5 65% -3 75.29 0.0
05 02:35 W 15 16.09 Fair CLR 1 -5 65% -3 75.29 0.0
05 02:15 W 17 16.09 Partly Cloudy SCT033 2 -6 56% -2 75.29 0.0
05 01:55 W 15 G 26 16.09 Fair CLR 2 -6 56% -2 75.29 0.0
05 01:35 W 15 G 30 16.09 Fair CLR 3 -6 52% -0 75.26 0.0
05 01:15 NW 13 G 31 16.09 Partly Cloudy SCT045 SCT060 3 -6 52% 0 75.26 0.0
05 00:55 NW 7 16.09 Overcast BKN047 OVC060 4 -6 48% 2 75.26 0.0
05 00:35 NW 9 16.09 Overcast BKN047 BKN060 OVC070 4 -6 48% 2 75.26 0.0
05 00:15 W 13 16.09 Overcast SCT047 OVC070 4 -6 48% 1 75.26 0.0
04 23:55 W 15 16.09 Overcast OVC070 4 -7 45% 1 75.23 0.0
04 23:35 W 11 16.09 Mostly Cloudy BKN070 4 -7 45% 2 75.23 0.0
04 23:15 W 11 16.09 Partly Cloudy SCT070 3 -7 48% 0 75.23 0.0
04 22:55 W 15 G 30 16.09 Fair CLR 4 -7 45% 1 75.23 0.0
04 22:35 W 15 16.09 Fair CLR 4 -6 48% 1 75.23 0.0
04 22:15 W 15 16.09 Mostly Cloudy BKN080 5 -7 42% 2 75.23 0.0
04 21:55 W 20 G 37 16.09 Overcast OVC080 6 -7 39% 3 75.21 0.0
04 21:35 W 17 16.09 Overcast OVC080 6 -7 39% 3 75.21 0.0
04 21:15 W 19 16.09 Mostly Cloudy BKN080 6 -7 39% 3 75.18 0.0
04 20:55 W 19 G 35 16.09 Overcast OVC080 6 -8 36% 3 75.16 0.0
04 20:35 W 19 16.09 Overcast OVC080 6 -8 36% 3 75.16 0.0
04 20:15 W 19 G 30 16.09 Overcast SCT070 OVC080 6 -8 36% 3 75.13 0.0
04 19:55 W 19 G 30 16.09 Overcast OVC070 6 -8 36% 3 75.13 0.0
04 19:35 W 22 G 31 16.09 Overcast OVC070 6 -8 36% 2 75.11 0.0
04 19:15 W 26 G 37 16.09 Overcast BKN070 OVC075 6 -8 36% 2 75.11 0.0
04 18:55 W 26 G 43 16.09 Partly Cloudy SCT070 6 -8 36% 2 75.08 0.0
04 18:35 W 22 G 43 16.09 Mostly Cloudy BKN070 BKN080 6 -8 36% 2 75.11 0.0
04 18:15 W 26 G 37 16.09 Overcast OVC055 7 -8 34% 3 75.11 0.0
04 17:55 W 24 G 41 16.09 Overcast SCT050 OVC055 6 -7 39% 2 75.08 0.0
04 17:35 W 26 G 46 16.09 Overcast SCT050 OVC055 7 -7 37% 3 75.08 0.0
04 17:15 W 30 G 41 16.09 Overcast SCT049 OVC055 7 -6 39% 3 75.06 0.0
04 16:55 W 28 G 41 16.09 Overcast OVC049 7 -5 43% 3 75.03 0.0
04 16:35 W 28 G 39 16.09 Overcast BKN049 OVC060 7 -5 43% 3 75.01 0.0
04 16:15 W 30 G 48 16.09 Overcast SCT047 OVC070 8 -4 43% 4 74.98 0.0
04 15:55 W 30 G 46 16.09 Overcast SCT045 OVC060 8 -4 43% 4 74.96 0.0
04 15:35 W 30 G 41 16.09 Overcast SCT047 OVC060 8 -4 43% 4 74.96 0.0
04 15:15 W 35 G 48 16.09 Overcast and Breezy SCT047 OVC060 8 -4 43% 4 74.93 0.0
04 14:55 W 30 G 41 16.09 Overcast BKN047 OVC060 8 -4 43% 4 74.9 0.0
04 14:35 W 33 G 43 16.09 Overcast and Breezy BKN050 OVC060 8 -4 43% 4 74.9 0.0
04 14:15 W 30 G 41 16.09 Overcast BKN050 OVC055 9 -5 37% 6 74.85 0.0
04 13:55 W 28 G 52 16.09 Overcast BKN050 OVC055 9 -4 40% 6 74.85 0.0
04 13:35 NW 37 G 54 16.09 Overcast and Breezy SCT046 OVC050 10 -4 37% 6 74.83 0.0
04 13:15 W 31 G 44 16.09 Overcast OVC050 9 -3 43% 5 74.8 0.0
04 12:55 W 31 G 46 16.09 Overcast SCT044 OVC049 9 -3 43% 5 74.78 0.0
04 12:35 W 28 G 43 16.09 Overcast BKN042 OVC049 9 -3 43% 6 74.75 0.0
04 12:15 W 28 G 41 16.09 Overcast BKN042 OVC049 9 -3 43% 6 74.73 0.0
04 11:55 W 28 G 48 16.09 Overcast SCT042 BKN049 OVC055 9 -3 43% 6 74.73 0.0
04 11:35 NW 33 G 43 16.09 Overcast and Breezy SCT042 OVC049 9 -2 46% 5 74.7 0.0
04 11:15 W 33 G 50 16.09 Overcast and Breezy SCT044 OVC049 9 -3 43% 5 74.68 0.0
04 10:55 W 37 G 56 16.09 Overcast and Breezy BKN044 OVC049 9 -3 43% 5 74.68 0.0
04 10:35 W 31 G 44 16.09 Mostly Cloudy BKN044 BKN050 9 -2 46% 5 74.65 0.0
04 10:15 NW 35 G 52 16.09 Mostly Cloudy and Breezy BKN050 11 -3 38% 74.6 0.0
04 09:55 W 33 G 44 16.09 Overcast and Breezy OVC048 10 -2 43% 7 74.57 0.0
04 09:35 W 35 G 56 16.09 Overcast and Breezy OVC044 9 -2 46% 5 74.55 0.0
04 09:15 W 33 G 46 16.09 Mostly Cloudy and Breezy BKN041 BKN047 9 -1 50% 5 74.55 0.0
04 08:55 W 33 G 44 16.09 Mostly Cloudy and Breezy SCT037 BKN046 11 1 50% 74.52 0.0
04 08:35 W 35 G 54 16.09 Mostly Cloudy and Breezy SCT041 BKN047 10 1 54% 7 74.52 0.0
04 08:15 W 28 G 39 16.09 Partly Cloudy SCT110 10 1 54% 7 74.5 0.0
04 07:55 W 22 G 35 16.09 Light Rain BKN100 10 2 58% 7 74.45 0.0
04 07:35 W 17 G 33 16.09 Light Rain OVC090 10 2 58% 8 74.42 0.0
04 07:15 W 20 G 35 16.09 Overcast SCT060 SCT070 OVC090 11 2 54% 74.45 0.0
04 06:55 W 17 G 30 16.09 Overcast OVC060 11 2 54% 74.42 0.0
04 06:35 W 20 G 33 16.09 Mostly Cloudy BKN060 BKN110 11 2 54% 74.4 0.0
04 06:15 NW 19 G 41 16.09 Partly Cloudy SCT110 11 2 54% 74.4 0.0
04 05:55 NW 28 G 48 16.09 Fair CLR 12 2 51% 74.37 0.0
04 05:35 W 43 G 56 16.09 Fair and Windy CLR 15 -3 29% 74.3 0.0
04 05:15 SW 20 16.09 Fair CLR 14 -4 29% 74.27 0.0
04 04:55 SW 17 G 26 16.09 Partly Cloudy SCT110 14 -4 29% 74.27 0.0
04 04:35 SW 17 16.09 Overcast OVC100 14 -4 29% 74.3 0.0
04 04:15 SW 17 G 30 16.09 Mostly Cloudy BKN090 14 -4 29% 74.32 0.0
04 03:55 SW 20 G 28 16.09 Partly Cloudy SCT100 SCT110 14 -4 29% 74.35 0.0
04 03:35 SW 17 G 28 16.09 Partly Cloudy SCT065 SCT090 SCT110 14 -4 29% 74.4 0.0
04 03:15 SW 20 G 31 16.09 Fair CLR 14 -4 29% 74.42 0.0
04 02:55 SW 26 G 33 16.09 Partly Cloudy SCT120 14 -4 29% 74.42 0.0
04 02:35 SW 22 G 37 16.09 Fair CLR 14 -4 29% 74.47 0.0
04 02:15 SW 22 G 33 16.09 Fair CLR 14 -4 29% 74.5 0.0
04 01:55 SW 19 G 31 16.09 Fair CLR 14 -4 29% 74.55 0.0
04 01:35 SW 20 G 33 16.09 Fair CLR 14 -4 29% 74.6 0.0
04 01:15 SW 20 G 28 16.09 Fair CLR 14 -4 29% 74.63 0.0
04 00:55 SW 20 G 31 16.09 Fair CLR 14 -4 29% 74.68 0.0
04 00:35 SW 19 G 31 16.09 Fair CLR 14 -4 29% 74.7 0.0
04 00:15 SW 17 16.09 Fair CLR 14 -4 29% 74.73 0.0
03 23:55 SW 15 16.09 Fair CLR 14 -5 27% 74.75 0.0
03 23:35 SW 17 16.09 Fair CLR 13 -5 28% 74.8 0.0
03 23:15 SW 15 16.09 Fair CLR 13 -5 28% 74.83 0.0
03 22:55 S 13 16.09 Fair CLR 13 -5 28% 74.88 0.0
03 22:35 S 11 16.09 Fair CLR 13 -6 26% 74.9 0.0
03 22:15 SW 13 16.09 Fair CLR 14 -6 25% 74.96 0.0
03 21:55 SW 9 16.09 Fair CLR 14 -6 25% 74.98 0.0
03 21:35 SW 9 16.09 Fair CLR 14 -6 25% 75.01 0.0
03 21:15 SW 7 16.09 Fair CLR 15 -6 23% 75.03 0.0
03 20:55 SW 9 16.09 Fair CLR 16 -6 22% 75.06 0.0
03 20:35 SW 9 16.09 Fair CLR 16 -7 20% 75.08 0.0
03 20:15 SW 9 16.09 Fair CLR 16 -7 20% 75.08 0.0
03 19:55 SW 13 16.09 Fair CLR 17 -7 19% 75.11 0.0
03 19:35 W 13 16.09 Fair CLR 18 -7 18% 75.11 0.0
03 19:15 W 9 16.09 Fair CLR 18 -7 18% 75.13 0.0
03 18:55 W 17 16.09 Fair CLR 18 -8 16% 75.13 0.0
03 18:35 SW 13 16.09 Fair CLR 18 -8 16% 75.13 0.0
03 18:15 W 15 16.09 Fair CLR 19 -8 15% 75.16 0.0
03 17:55 W 24 G 37 16.09 Fair CLR 19 -9 14% 75.18 0.0
03 17:35 W 28 16.09 Fair CLR 19 -8 15% 75.18 0.0
03 17:15 NW 19 G 31 16.09 Fair CLR 19 -8 15% 75.21 0.0
03 16:55 W 20 G 30 16.09 Fair CLR 19 -9 14% 75.21 0.0
03 16:35 W 24 G 30 16.09 Fair CLR 19 -8 15% 75.21 0.0
03 16:15 W 24 G 39 16.09 Fair CLR 18 -8 16% 75.23 0.0
03 15:55 W 19 G 35 16.09 Fair CLR 18 -7 18% 75.26 0.0
03 15:35 NW 22 G 44 16.09 Fair CLR 18 -8 16% 75.26 0.0
03 15:15 W 20 G 30 16.09 Fair CLR 18 -7 18% 75.29 0.0
03 14:55 W 20 G 31 16.09 Fair CLR 18 -7 18% 75.29 0.0
03 14:35 W 19 G 30 16.09 Fair CLR 18 -7 18% 75.31 0.0
03 14:15 W 22 G 33 16.09 Fair CLR 18 -8 16% 75.31 0.0
03 13:55 W 24 G 37 16.09 Fair CLR 17 -9 16% 75.34 0.0
03 13:35 NW 26 G 37 16.09 Fair CLR 17 -12 13% 75.36 0.0
03 13:15 NW 26 G 39 16.09 Fair CLR 17 -14 11% 75.36 0.0
03 12:55 NW 28 G 37 16.09 Fair CLR 16 -16 10% 75.39 0.0
03 12:35 NW 19 G 37 16.09 Fair CLR 16 -14 11% 75.39 0.0
03 12:15 NW 26 G 39 16.09 Fair CLR 16 -14 11% 75.41 0.0
03 11:55 NW 22 G 46 16.09 Fair CLR 16 -13 12% 75.41 0.0
03 11:35 NW 24 G 31 16.09 Fair CLR 16 -7 20% 75.39 0.0
03 11:15 W 22 G 37 16.09 Fair CLR 16 -3 27% 75.39 0.0
03 10:55 NW 19 16.09 Fair CLR 16 -2 29% 75.41 0.0
03 10:35 NW 20 G 37 16.09 Fair CLR 15 -1 34% 75.41 0.0
03 10:15 N 28 G 39 16.09 Fair CLR 14 -1 36% 75.39 0.0
03 09:55 NW 20 G 31 16.09 Fair CLR 14 0 39% 75.41 0.0
03 09:35 NW 22 G 35 16.09 Fair CLR 13 1 44% 75.41 0.0
03 09:15 N 22 G 33 16.09 Fair CLR 13 1 44% 75.39 0.0
03 08:55 NW 19 G 26 16.09 Fair CLR 13 2 47% 75.39 0.0
03 08:35 NW 17 G 30 16.09 Fair CLR 13 2 47% 75.39 0.0
03 08:15 NW 15 16.09 Fair CLR 12 3 54% 75.39 0.0
03 07:55 NW 9 16.09 Fair CLR 10 3 62% 9 75.39 0.0
03 07:35 NW 9 16.09 Fair CLR 9 2 62% 8 75.36 0.0
03 07:15 NW 11 16.09 Fair CLR 8 2 66% 6 75.36 0.0
03 06:55 NW 7 16.09 Fair CLR 5 2 81% 4 75.36 0.0
03 06:35 Calm 16.09 Fair CLR 3 1 87% 75.34 0.0
03 06:15 NW 6 16.09 Fair CLR 3 0 81% 75.34 0.0
03 05:55 NW 6 16.09 Fair CLR 3 1 87% 75.34 0.0
03 05:35 NW 7 16.09 Fair CLR 3 0 81% 1 75.34 0.0
03 05:15 NW 7 16.09 Fair CLR 4 1 81% 2 75.34 0.0
03 04:55 NW 7 16.09 Fair CLR 3 1 87% 1 75.34 0.0
03 04:35 Calm 16.09 Fair CLR 4 1 81% 75.34 0.0
03 04:15 Calm 16.09 Fair CLR 6 2 76% 75.34 0.0
03 03:55 Calm 16.09 Fair CLR 6 2 76% 75.34 0.0
03 03:35 Calm 16.09 Fair CLR 9 2 62% 75.34 0.0
03 03:15 Calm 16.09 Partly Cloudy SCT100 9 2 62% 75.36 0.0
03 02:55 Calm 16.09 Partly Cloudy SCT100 7 2 71% 75.36 0.0
03 02:35 Calm 16.09 Partly Cloudy SCT110 11 1 50% 75.39 0.0
03 02:15 S 6 16.09 Fair CLR 9 2 62% 75.41 0.0
03 01:55 Calm 16.09 Partly Cloudy SCT090 11 2 54% 75.41 0.0
03 01:35 Calm 16.09 Partly Cloudy SCT090 11 3 58% 75.44 0.0
03 01:15 Calm 16.09 Overcast OVC090 11 2 54% 75.46 0.0
03 00:55 S 6 16.09 Overcast OVC090 11 2 54% 75.46 0.0
03 00:35 S 6 16.09 Overcast OVC090 11 3 58% 75.51 0.0
03 00:15 Calm 16.09 Overcast OVC090 11 3 58% 75.51 0.0
02 23:55 Calm 16.09 Overcast OVC090 11 3 58% 75.51 0.0
02 23:35 Calm 16.09 Light Rain SCT050 SCT070 OVC090 12 3 54% 75.57 0.0
02 23:15 Calm 11.27 Overcast SCT050 SCT070 OVC080 12 3 54% 75.57 0.0
02 22:55 SE 6 16.09 Overcast SCT070 OVC080 11 3 58% 75.57 0.0
02 22:35 NE 6 16.09 Overcast BKN070 BKN080 OVC100 12 4 58% 75.57 0.0
02 22:15 Calm 16.09 Light Rain SCT050 SCT070 OVC090 12 3 54% 75.62 0.0
02 21:55 NW 7 16.09 Drizzle SCT050 BKN060 OVC090 12 3 54% 75.64 0.0
02 21:35 W 19 G 28 16.09 Light Rain BKN060 OVC070 14 1 41% 75.64 0.0
02 21:15 W 7 16.09 Overcast BKN060 BKN080 OVC090 14 -1 36% 75.62 0.0
02 20:55 W 13 G 35 16.09 Light Rain BKN070 BKN085 OVC090 14 0 39% 75.62 0.0
02 20:35 W 13 16.09 Overcast OVC070 15 -2 31% 75.62 0.0
Date Time (cdt) Wind (kph) Vis. (km) Weather Sky Cond. Air Dwpt Max. Min. Relative Humidity Wind Chill (°C) Heat Index (°C) altimeter (cm) sea level (mb) 1 hr 3 hr 6 hr
6 hour
Temperature (ºC) Pressure Precipitation (cm)